createdAt,value
2022-11-01T00:00:11.933Z,24.33
2022-11-01T00:02:43.784Z,28.50
2022-11-01T00:05:12.996Z,22.27
2022-11-01T00:07:42.101Z,31.97
2022-11-01T00:10:11.905Z,24.77
2022-11-01T00:12:44.751Z,29.07
2022-11-01T00:15:13.999Z,21.43
2022-11-01T00:17:43.119Z,24.37
2022-11-01T00:20:13.376Z,28.00
2022-11-01T00:22:42.503Z,18.43
2022-11-01T00:25:11.745Z,26.10
2022-11-01T00:27:42.341Z,27.60
2022-11-01T00:30:11.749Z,24.10
2022-11-01T00:32:41.423Z,18.13
2022-11-01T00:35:11.068Z,21.43
2022-11-01T00:37:40.368Z,24.73
2022-11-01T00:40:09.861Z,23.57
2022-11-01T00:42:38.928Z,22.27
2022-11-01T00:45:09.907Z,35.10
2022-11-01T00:47:39.110Z,23.10
2022-11-01T00:50:08.942Z,25.43
2022-11-01T00:52:38.077Z,15.70
2022-11-01T00:55:07.679Z,21.00
2022-11-01T00:57:37.153Z,22.53
2022-11-01T01:00:06.974Z,33.83
2022-11-01T01:02:37.449Z,25.77
2022-11-01T01:05:06.758Z,25.87
2022-11-01T01:07:35.967Z,23.87
2022-11-01T01:10:05.396Z,28.30
2022-11-01T01:12:34.490Z,23.00
2022-11-01T01:15:03.794Z,31.00
2022-11-01T01:17:34.053Z,27.37
2022-11-01T01:20:05.192Z,33.63
2022-11-01T01:22:34.824Z,26.17
2022-11-01T01:25:03.863Z,29.13
2022-11-01T01:27:32.978Z,70.23
2022-11-01T01:30:02.148Z,27.97
2022-11-01T01:32:31.297Z,31.67
2022-11-01T01:35:00.306Z,37.60
2022-11-01T01:37:31.030Z,31.53
2022-11-01T01:40:00.235Z,29.73
2022-11-01T01:42:30.664Z,22.27
2022-11-01T01:45:16.999Z,31.13
2022-11-01T01:47:48.271Z,30.17
2022-11-01T01:50:18.461Z,29.77
2022-11-01T01:52:50.344Z,36.10
2022-11-01T01:55:22.231Z,25.90
2022-11-01T01:57:52.691Z,28.70
2022-11-01T02:00:22.617Z,26.37
2022-11-01T02:02:52.406Z,24.27
2022-11-01T02:05:24.437Z,28.40
2022-11-01T02:07:55.770Z,24.30
2022-11-01T02:10:24.938Z,27.40
2022-11-01T02:12:54.192Z,28.23
2022-11-01T02:15:25.852Z,36.17
2022-11-01T02:18:01.177Z,24.17
2022-11-01T02:20:43.155Z,35.60
2022-11-01T02:23:22.414Z,26.60
2022-11-01T02:26:02.445Z,28.53
2022-11-01T02:28:43.517Z,24.80
2022-11-01T02:31:20.118Z,23.57
2022-11-01T02:33:52.020Z,29.60
2022-11-01T02:36:24.338Z,23.80
2022-11-01T02:38:54.922Z,24.23
2022-11-01T02:41:25.887Z,27.60
2022-11-01T02:43:56.442Z,24.70
2022-11-01T02:46:43.428Z,26.83
2022-11-01T02:49:15.371Z,20.33
2022-11-01T02:51:45.822Z,25.30
2022-11-01T02:54:21.776Z,25.03
2022-11-01T02:56:51.558Z,20.13
2022-11-01T02:59:25.291Z,24.83
2022-11-01T03:01:59.434Z,26.43
2022-11-01T03:04:30.025Z,29.87
2022-11-01T03:07:00.978Z,29.20
2022-11-01T03:09:30.775Z,28.03
2022-11-01T03:12:03.060Z,26.37
2022-11-01T03:14:35.010Z,23.23
2022-11-01T03:17:07.099Z,29.33
2022-11-01T03:19:44.644Z,47.23
2022-11-01T03:22:15.580Z,28.23
2022-11-01T03:24:50.079Z,38.70
2022-11-01T03:27:21.936Z,26.77
2022-11-01T03:29:57.367Z,29.10
2022-11-01T03:32:29.569Z,34.33
2022-11-01T03:35:01.930Z,26.50
2022-11-01T03:37:32.898Z,29.23
2022-11-01T03:40:04.659Z,25.63
2022-11-01T03:42:34.648Z,25.43
2022-11-01T03:45:06.434Z,31.77
2022-11-01T03:47:36.070Z,27.10
2022-11-01T03:50:22.981Z,25.40
2022-11-01T03:52:54.123Z,25.07
2022-11-01T03:55:23.817Z,23.63
2022-11-01T03:57:53.626Z,22.40
2022-11-01T04:00:23.923Z,24.10
2022-11-01T04:02:53.671Z,29.13
2022-11-01T04:05:23.326Z,34.13
2022-11-01T04:07:54.400Z,35.50
2022-11-01T04:10:24.477Z,30.37
2022-11-01T04:12:54.092Z,40.90
2022-11-01T04:15:41.795Z,26.20
2022-11-01T04:18:32.394Z,32.40
2022-11-01T04:21:03.604Z,32.07
2022-11-01T04:23:34.351Z,27.97
2022-11-01T04:26:03.841Z,26.33
2022-11-01T04:28:33.030Z,25.53
2022-11-01T04:31:02.290Z,35.13
2022-11-01T04:33:31.439Z,35.40
2022-11-01T04:36:00.769Z,34.40
2022-11-01T04:38:29.852Z,25.90
2022-11-01T04:41:00.357Z,30.03
2022-11-01T04:43:29.626Z,25.33
2022-11-01T04:45:59.362Z,26.13
2022-11-01T04:48:28.479Z,23.73
2022-11-01T04:50:57.654Z,25.43
2022-11-01T04:53:27.132Z,28.77
2022-11-01T04:55:56.254Z,34.20
2022-11-01T04:58:26.898Z,28.00
2022-11-01T05:00:56.202Z,23.30
2022-11-01T05:03:25.449Z,28.27
2022-11-01T05:05:54.445Z,26.93
2022-11-01T05:08:23.496Z,25.23
2022-11-01T05:10:54.468Z,26.03
2022-11-01T05:13:23.668Z,26.47
2022-11-01T05:16:17.814Z,24.27
2022-11-01T05:18:44.335Z,27.37
2022-11-01T05:21:13.518Z,19.73
2022-11-01T05:23:42.609Z,23.20
2022-11-01T05:26:11.702Z,26.73
2022-11-01T05:28:40.771Z,25.77
2022-11-01T05:31:11.302Z,24.60
2022-11-01T05:33:40.911Z,21.73
2022-11-01T05:36:10.169Z,21.33
2022-11-01T05:38:39.293Z,19.13
2022-11-01T05:41:08.593Z,22.07
2022-11-01T05:43:37.798Z,17.00
2022-11-01T05:46:07.082Z,22.70
2022-11-01T05:48:37.722Z,23.23
2022-11-01T05:51:06.878Z,26.87
2022-11-01T05:53:36.159Z,25.73
2022-11-01T05:56:05.578Z,28.77
2022-11-01T05:58:35.092Z,30.77
2022-11-01T06:01:06.540Z,23.80
2022-11-01T06:03:37.277Z,30.37
2022-11-01T06:06:06.923Z,21.87
2022-11-01T06:08:36.146Z,28.27
2022-11-01T06:11:05.953Z,21.90
2022-11-01T06:13:35.711Z,21.13
2022-11-01T06:16:06.159Z,32.73
2022-11-01T06:18:35.541Z,23.43
2022-11-01T06:21:06.154Z,37.13
2022-11-01T06:23:35.632Z,23.50
2022-11-01T06:26:04.975Z,33.23
2022-11-01T06:28:34.487Z,27.90
2022-11-01T06:33:38.123Z,29.03
2022-11-01T06:36:09.211Z,28.70
2022-11-01T06:38:38.468Z,27.23
2022-11-01T06:41:07.557Z,27.83
2022-11-01T06:43:36.709Z,24.33
2022-11-01T06:46:06.003Z,24.43
2022-11-01T06:48:35.183Z,29.80
2022-11-01T06:51:04.590Z,22.07
2022-11-01T06:53:35.040Z,16.03
2022-11-01T06:56:04.361Z,19.43
2022-11-01T06:58:33.394Z,17.27
2022-11-01T07:01:03.404Z,20.60
2022-11-01T07:03:32.716Z,12.50
2022-11-01T07:06:02.502Z,14.70
2022-11-01T07:08:31.627Z,12.63
2022-11-01T07:11:02.174Z,19.00
2022-11-01T07:13:34.077Z,14.83
2022-11-01T07:16:04.331Z,17.57
2022-11-01T07:18:34.762Z,18.53
2022-11-01T07:21:04.378Z,14.90
2022-11-01T07:23:33.836Z,17.90
2022-11-01T07:26:04.462Z,10.17
2022-11-01T07:28:33.692Z,11.57
2022-11-01T07:31:02.828Z,17.20
2022-11-01T07:33:32.051Z,25.83
2022-11-01T07:36:02.369Z,18.90
2022-11-01T07:38:31.895Z,23.57
2022-11-01T07:41:01.278Z,13.13
2022-11-01T07:43:31.816Z,19.60
2022-11-01T07:46:04.064Z,12.73
2022-11-01T07:48:33.544Z,14.53
2022-11-01T07:51:03.599Z,10.97
2022-11-01T07:53:32.964Z,20.50
2022-11-01T07:56:02.779Z,12.07
2022-11-01T07:58:33.453Z,26.53
2022-11-01T08:01:02.953Z,19.47
2022-11-01T08:03:32.123Z,16.73
2022-11-01T08:06:01.557Z,19.90
2022-11-01T08:08:30.743Z,24.27
2022-11-01T08:11:01.697Z,16.37
2022-11-01T08:13:31.338Z,25.50
2022-11-01T08:16:03.145Z,18.53
2022-11-01T08:18:32.601Z,24.47
2022-11-01T08:21:02.017Z,16.17
2022-11-01T08:23:31.127Z,37.30
2022-11-01T08:26:00.206Z,21.37
2022-11-01T08:28:30.579Z,21.50
2022-11-01T08:31:01.276Z,23.47
2022-11-01T08:33:30.337Z,15.83
2022-11-01T08:35:59.341Z,10.87
2022-11-01T08:38:28.597Z,14.93
2022-11-01T08:40:58.048Z,14.40
2022-11-01T08:43:27.256Z,19.87
2022-11-01T08:45:56.424Z,14.00
2022-11-01T08:48:26.916Z,15.13
2022-11-01T08:50:56.080Z,14.40
2022-11-01T08:53:25.440Z,26.00
2022-11-01T08:55:57.072Z,7.57
2022-11-01T08:58:26.431Z,11.77
2022-11-01T09:00:55.531Z,18.03
2022-11-01T09:03:26.126Z,19.53
2022-11-01T09:05:55.346Z,13.30
2022-11-01T09:08:24.697Z,14.93
2022-11-01T09:10:53.823Z,15.90
2022-11-01T09:13:23.660Z,12.63
2022-11-01T09:15:57.251Z,18.80
2022-11-01T09:18:29.428Z,11.33
2022-11-01T09:20:58.875Z,12.30
2022-11-01T09:23:28.234Z,10.90
2022-11-01T09:26:04.128Z,17.00
2022-11-01T09:28:34.026Z,17.13
2022-11-01T09:31:15.771Z,22.80
2022-11-01T09:33:51.224Z,11.80
2022-11-01T09:36:21.447Z,13.17
2022-11-01T09:38:50.626Z,7.00
2022-11-01T09:41:27.151Z,12.70
2022-11-01T09:43:57.025Z,13.40
2022-11-01T09:46:28.731Z,8.30
2022-11-01T09:49:00.845Z,13.40
2022-11-01T09:51:30.651Z,12.60
2022-11-01T09:54:04.497Z,13.53
2022-11-01T09:56:36.441Z,8.30
2022-11-01T09:59:09.495Z,13.50
2022-11-01T10:01:43.131Z,12.87
2022-11-01T10:04:45.525Z,11.20
2022-11-01T10:07:19.344Z,7.37
2022-11-01T10:09:53.751Z,10.40
2022-11-01T10:12:32.663Z,14.77
2022-11-01T10:15:09.314Z,9.73
2022-11-01T10:17:52.447Z,8.83
2022-11-01T10:20:23.869Z,8.40
2022-11-01T10:22:54.491Z,9.97
2022-11-01T10:25:24.753Z,9.10
2022-11-01T10:28:03.156Z,11.50
2022-11-01T10:30:35.314Z,14.30
2022-11-01T10:33:08.656Z,11.77
2022-11-01T10:35:40.357Z,10.30
2022-11-01T10:41:07.517Z,10.80
2022-11-01T10:43:39.286Z,13.23
2022-11-01T10:46:10.415Z,7.43
2022-11-01T10:48:40.562Z,24.63
2022-11-01T10:51:10.467Z,21.60
2022-11-01T10:53:45.746Z,17.73
2022-11-01T10:56:21.261Z,17.23
2022-11-01T10:58:56.334Z,18.00
2022-11-01T11:01:27.601Z,14.97
2022-11-01T11:03:58.205Z,15.77
2022-11-01T11:06:27.437Z,13.90
2022-11-01T11:08:59.622Z,11.77
2022-11-01T11:11:33.436Z,15.63
2022-11-01T11:14:04.776Z,13.57
2022-11-01T11:16:35.927Z,12.07
2022-11-01T11:19:16.433Z,11.27
2022-11-01T11:21:46.140Z,18.20
2022-11-01T11:24:20.776Z,13.03
2022-11-01T11:26:54.231Z,17.90
2022-11-01T11:29:31.504Z,10.47
2022-11-01T11:32:01.983Z,13.93
2022-11-01T11:34:32.645Z,11.70
2022-11-01T11:37:03.472Z,9.63
2022-11-01T11:39:35.959Z,8.20
2022-11-01T11:42:18.694Z,9.93
2022-11-01T11:44:52.133Z,10.77
2022-11-01T11:47:25.913Z,19.50
2022-11-01T11:49:56.981Z,12.10
2022-11-01T11:52:30.370Z,23.20
2022-11-01T11:55:01.910Z,14.63
2022-11-01T11:57:31.056Z,11.90
2022-11-01T12:00:01.680Z,13.17
2022-11-01T12:02:32.861Z,16.60
2022-11-01T12:05:04.221Z,12.57
2022-11-01T12:07:33.950Z,12.30
2022-11-01T12:10:05.775Z,12.47
2022-11-01T12:12:36.882Z,11.17
2022-11-01T12:15:26.672Z,5.83
2022-11-01T12:17:56.107Z,7.37
2022-11-01T12:20:25.806Z,15.63
2022-11-01T12:23:00.519Z,15.83
2022-11-01T12:25:31.272Z,11.97
2022-11-01T12:28:02.565Z,11.83
2022-11-01T12:30:33.318Z,10.70
2022-11-01T12:33:05.276Z,9.97
2022-11-01T12:35:35.517Z,12.50
2022-11-01T12:38:18.332Z,7.70
2022-11-01T12:40:52.446Z,11.83
2022-11-01T12:43:24.091Z,8.80
2022-11-01T12:45:55.445Z,10.90
2022-11-01T12:48:26.365Z,11.53
2022-11-01T12:50:58.565Z,8.10
2022-11-01T12:53:29.994Z,14.60
2022-11-01T12:56:01.036Z,12.03
2022-11-01T12:58:33.775Z,8.33
2022-11-01T13:01:13.277Z,10.47
2022-11-01T13:03:47.047Z,11.93
2022-11-01T13:06:23.947Z,8.07
2022-11-01T13:08:58.404Z,9.03
2022-11-01T13:11:32.370Z,8.03
2022-11-01T13:14:07.601Z,10.90
2022-11-01T13:16:39.334Z,9.20
2022-11-01T13:19:12.961Z,8.67
2022-11-01T13:21:46.444Z,12.43
2022-11-01T13:24:18.256Z,11.87
2022-11-01T13:26:51.262Z,15.03
2022-11-01T13:29:25.373Z,11.70
2022-11-01T13:32:02.413Z,12.70
2022-11-01T13:34:38.887Z,17.67
2022-11-01T13:37:12.733Z,10.07
2022-11-01T13:39:48.542Z,6.83
2022-11-01T13:42:21.466Z,12.30
2022-11-01T13:44:54.153Z,6.60
2022-11-01T13:47:33.957Z,9.07
2022-11-01T13:50:11.055Z,7.00
2022-11-01T13:52:44.709Z,8.57
2022-11-01T13:55:20.639Z,9.53
2022-11-01T13:57:54.308Z,6.13
2022-11-01T14:00:40.762Z,6.23
2022-11-01T14:03:19.512Z,8.53
2022-11-01T14:05:48.984Z,7.57
2022-11-01T14:08:28.998Z,9.60
2022-11-01T14:10:58.593Z,5.93
2022-11-01T14:13:36.507Z,5.80
2022-11-01T14:16:20.776Z,11.23
2022-11-01T14:19:22.920Z,9.97
2022-11-01T14:21:54.986Z,6.23
2022-11-01T14:24:29.467Z,13.63
2022-11-01T14:27:09.188Z,6.90
2022-11-01T14:29:41.803Z,10.10
2022-11-01T14:32:12.426Z,12.33
2022-11-01T14:34:42.859Z,6.80
2022-11-01T14:37:18.577Z,6.97
2022-11-01T14:39:53.499Z,10.43
2022-11-01T14:42:27.387Z,9.73
2022-11-01T14:45:00.222Z,9.40
2022-11-01T14:47:33.662Z,7.30
2022-11-01T14:50:05.953Z,8.10
2022-11-01T14:52:40.885Z,13.17
2022-11-01T14:55:16.911Z,7.50
2022-11-01T14:57:48.808Z,8.70
2022-11-01T15:00:23.922Z,7.87
2022-11-01T15:02:53.841Z,9.37
2022-11-01T15:05:23.071Z,12.00
2022-11-01T15:07:53.478Z,5.30
2022-11-01T15:10:22.965Z,7.20
2022-11-01T15:12:54.704Z,13.60
2022-11-01T15:15:26.696Z,6.40
2022-11-01T15:17:57.619Z,8.63
2022-11-01T15:20:28.034Z,7.93
2022-11-01T15:22:57.958Z,5.90
2022-11-01T15:25:27.873Z,6.00
2022-11-01T15:27:58.385Z,6.87
2022-11-01T15:30:30.343Z,6.67
2022-11-01T15:33:14.367Z,8.33
2022-11-01T15:35:43.792Z,4.23
2022-11-01T15:38:20.969Z,6.93
2022-11-01T15:40:50.536Z,2.83
2022-11-01T15:43:20.805Z,7.10
2022-11-01T15:45:54.544Z,6.20
2022-11-01T15:48:26.097Z,7.97
2022-11-01T15:50:58.021Z,7.00
2022-11-01T15:53:29.193Z,7.50
2022-11-01T15:56:01.297Z,15.23
2022-11-01T15:58:33.609Z,11.90
2022-11-01T16:01:05.712Z,7.17
2022-11-01T16:03:37.961Z,4.90
2022-11-01T16:06:09.204Z,10.43
2022-11-01T16:08:43.421Z,7.77
2022-11-01T16:11:12.873Z,10.60
2022-11-01T16:13:42.012Z,10.17
2022-11-01T16:16:12.661Z,9.00
2022-11-01T16:18:43.252Z,8.33
2022-11-01T16:21:25.815Z,9.93
2022-11-01T16:23:59.326Z,8.27
2022-11-01T16:26:29.811Z,14.03
2022-11-01T16:28:58.959Z,18.27
2022-11-01T16:31:31.014Z,12.13
2022-11-01T16:34:00.447Z,6.67
2022-11-01T16:36:37.114Z,10.30
2022-11-01T16:39:21.127Z,8.33
2022-11-01T16:41:50.280Z,18.20
2022-11-01T16:44:19.533Z,16.43
2022-11-01T16:46:50.709Z,10.83
2022-11-01T16:49:24.077Z,10.43
2022-11-01T16:51:56.440Z,10.77
2022-11-01T16:54:25.746Z,15.90
2022-11-01T16:56:55.718Z,11.80
2022-11-01T16:59:27.425Z,14.63
2022-11-01T17:01:59.098Z,6.80
2022-11-01T17:04:29.380Z,8.37
2022-11-01T17:06:59.364Z,14.30
2022-11-01T17:09:31.811Z,10.20
2022-11-01T17:12:01.283Z,12.40
2022-11-01T17:14:30.565Z,11.80
2022-11-01T17:17:07.276Z,11.80
2022-11-01T17:19:38.033Z,13.20
2022-11-01T17:22:08.916Z,22.40
2022-11-01T17:24:38.738Z,12.37
2022-11-01T17:27:09.098Z,19.73
2022-11-01T17:29:38.221Z,7.60
2022-11-01T17:32:11.498Z,14.07
2022-11-01T17:34:40.946Z,15.10
2022-11-01T17:37:14.797Z,14.23
2022-11-01T17:39:44.016Z,9.43
2022-11-01T17:42:13.389Z,9.47
2022-11-01T17:44:42.437Z,10.83
2022-11-01T17:47:15.702Z,11.50
2022-11-01T17:49:45.045Z,16.97
2022-11-01T17:52:14.277Z,8.87
2022-11-01T17:54:43.467Z,4.90
2022-11-01T17:57:12.936Z,12.50
2022-11-01T17:59:42.213Z,14.23
2022-11-01T18:02:13.407Z,12.43
2022-11-01T18:04:42.838Z,10.10
2022-11-01T18:07:13.102Z,19.37
2022-11-01T18:09:42.513Z,11.83
2022-11-01T18:12:14.198Z,13.47
2022-11-01T18:14:49.390Z,18.27
2022-11-01T18:17:26.853Z,8.60
2022-11-01T18:19:58.046Z,12.67
2022-11-01T18:22:32.851Z,11.20
2022-11-01T18:25:05.716Z,12.27
2022-11-01T18:27:35.968Z,15.23
2022-11-01T18:30:10.542Z,9.60
2022-11-01T18:32:42.795Z,7.37
2022-11-01T18:35:18.216Z,18.83
2022-11-01T18:37:50.812Z,13.60
2022-11-01T18:40:23.488Z,15.53
2022-11-01T18:42:53.722Z,9.03
2022-11-01T18:45:31.020Z,12.37
2022-11-01T18:48:07.303Z,12.50
2022-11-01T18:50:38.742Z,7.13
2022-11-01T18:53:14.619Z,7.70
2022-11-01T18:55:44.624Z,10.03
2022-11-01T18:58:16.340Z,16.20
2022-11-01T19:00:45.923Z,14.47
2022-11-01T19:03:21.772Z,14.47
2022-11-01T19:05:53.354Z,7.90
2022-11-01T19:08:25.119Z,8.53
2022-11-01T19:10:56.767Z,9.97
2022-11-01T19:13:29.418Z,14.50
2022-11-01T19:15:59.226Z,14.23
2022-11-01T19:18:30.809Z,9.50
2022-11-01T19:21:00.984Z,7.37
2022-11-01T19:23:37.733Z,14.00
2022-11-01T19:26:16.130Z,12.37
2022-11-01T19:28:45.485Z,11.23
2022-11-01T19:31:18.541Z,8.90
2022-11-01T19:33:55.541Z,15.73
2022-11-01T19:36:25.698Z,12.33
2022-11-01T19:38:55.029Z,14.40
2022-11-01T19:41:25.447Z,17.07
2022-11-01T19:43:55.302Z,20.20
2022-11-01T19:46:24.910Z,14.80
2022-11-01T19:48:55.695Z,18.73
2022-11-01T19:51:26.835Z,16.03
2022-11-01T19:53:55.947Z,11.30
2022-11-01T19:56:26.305Z,15.50
2022-11-01T19:58:57.664Z,24.27
2022-11-01T20:01:33.276Z,22.53
2022-11-01T20:04:04.726Z,14.27
2022-11-01T20:06:37.881Z,15.60
2022-11-01T20:09:08.888Z,10.73
2022-11-01T20:11:37.977Z,13.13
2022-11-01T20:14:07.741Z,15.60
2022-11-01T20:16:36.930Z,12.90
2022-11-01T20:19:07.442Z,13.10
2022-11-01T20:21:37.159Z,7.83
2022-11-01T20:24:06.725Z,12.87
2022-11-01T20:26:35.914Z,15.47
2022-11-01T20:29:05.952Z,12.13
2022-11-01T20:31:35.193Z,17.20
2022-11-01T20:34:04.441Z,15.20
2022-11-01T20:36:35.002Z,27.90
2022-11-01T20:39:04.367Z,12.30
2022-11-01T20:41:33.558Z,18.83
2022-11-01T20:44:02.755Z,15.07
2022-11-01T20:46:31.925Z,17.17
2022-11-01T20:49:01.210Z,14.80
2022-11-01T20:51:30.550Z,13.93
2022-11-01T20:54:01.558Z,12.60
2022-11-01T20:56:30.732Z,11.97
2022-11-01T21:01:32.491Z,15.30
2022-11-01T21:04:01.739Z,13.03
2022-11-01T21:06:33.897Z,21.67
2022-11-01T21:09:09.613Z,16.13
2022-11-01T21:11:45.018Z,10.30
2022-11-01T21:14:15.561Z,13.20
2022-11-01T21:16:45.375Z,18.50
2022-11-01T21:19:17.214Z,11.50
2022-11-01T21:21:47.216Z,15.03
2022-11-01T21:24:34.981Z,12.37
2022-11-01T21:27:19.246Z,17.57
2022-11-01T21:29:49.709Z,14.93
2022-11-01T21:32:27.334Z,11.97
2022-11-01T21:34:56.515Z,10.17
2022-11-01T21:37:26.447Z,11.67
2022-11-01T21:40:04.289Z,11.73
2022-11-01T21:42:36.166Z,13.03
2022-11-01T21:45:24.127Z,17.07
2022-11-01T21:47:54.333Z,18.67
2022-11-01T21:50:23.621Z,15.13
2022-11-01T21:52:52.968Z,16.13
2022-11-01T21:55:23.606Z,10.70
2022-11-01T21:57:52.835Z,11.60
2022-11-01T22:00:22.337Z,8.77
2022-11-01T22:02:51.700Z,11.10
2022-11-01T22:05:20.839Z,15.77
2022-11-01T22:07:50.272Z,14.93
2022-11-01T22:10:19.667Z,11.20
2022-11-01T22:12:50.339Z,15.53
2022-11-01T22:15:19.878Z,11.97
2022-11-01T22:17:49.176Z,9.30
2022-11-01T22:20:18.719Z,9.83
2022-11-01T22:22:48.003Z,10.40
2022-11-01T22:25:17.491Z,14.83
2022-11-01T22:27:46.964Z,13.63
2022-11-01T22:30:17.962Z,10.57
2022-11-01T22:32:47.475Z,16.33
2022-11-01T22:35:16.849Z,18.27
2022-11-01T22:37:46.617Z,12.43
2022-11-01T22:40:16.894Z,13.53
2022-11-01T22:42:48.249Z,15.20
2022-11-01T22:45:19.534Z,14.77
2022-11-01T22:47:49.067Z,9.77
2022-11-01T22:50:24.014Z,10.07
2022-11-01T22:52:53.434Z,13.47
2022-11-01T22:55:25.638Z,12.43
2022-11-01T22:57:57.011Z,16.43
2022-11-01T23:00:33.653Z,11.40
2022-11-01T23:03:04.544Z,12.90
2022-11-01T23:05:33.883Z,14.63
2022-11-01T23:08:05.996Z,10.17
2022-11-01T23:10:35.845Z,11.23
2022-11-01T23:13:26.837Z,11.90
2022-11-01T23:15:59.761Z,13.77
2022-11-01T23:18:32.037Z,15.83
2022-11-01T23:21:02.154Z,20.90
2022-11-01T23:23:31.545Z,16.00
2022-11-01T23:26:02.372Z,14.63
2022-11-01T23:28:35.419Z,17.63
2022-11-01T23:31:06.922Z,20.63
2022-11-01T23:33:37.899Z,12.63
2022-11-01T23:36:07.349Z,10.77
2022-11-01T23:38:38.210Z,13.07
2022-11-01T23:41:07.713Z,8.27
2022-11-01T23:43:39.718Z,13.73
2022-11-01T23:46:12.456Z,11.63
2022-11-01T23:48:44.308Z,14.30
2022-11-01T23:51:17.046Z,14.30
2022-11-01T23:53:46.517Z,13.50
2022-11-01T23:56:16.679Z,10.47
2022-11-01T23:58:45.914Z,10.70
